weather.gov     
National Weather Service

Terminal Aerodrome Forecast
NWS Homepage
This page is being discontinued on March 12, 2014.
The same data is available at this site. Please update your bookmarks.
Thank you, and we apologize for the inconvenience.
Please send an email to SR-SRH.Webmaster@noaa.gov with any concerns.


Current Version
Previous Version:    01  02  03  04  05  06  07  08  09  10  11  12  13  14  15  16  17  18  19  20  21  22  23  24  25  
[Printable]
816
FTUS43 KJKL 241100
TAFLOZ
TAF
KLOZ 241124Z 2412/2512 20017G26KT P6SM BKN040
     FM241400 20018G30KT P6SM BKN040
     FM241700 22026G38KT P6SM BKN040
     FM241900 25015G24KT P6SM SCT040
     FM250000 26010KT P6SM SCT035
     FM250400 23005KT P6SM SKC=


U.S. Dept. of Commerce
NOAA National Weather Service
1325 East West Highway
Silver Spring, MD 20910
E-mail: w-nws.webmaster@noaa.gov
Page last modified: May 16, 2007
NATIONAL WEATHER SERVICE: for Safety, for Work, for Fun - FOR LIFE